Doris — 9HA2632 — position and weather

sailwx.info

Track history (hours):
 
Tides and Currents Weather Stations Pressure Air Temp Water Temp Dewpoint Dewpoint Depression Visibility Wind Speed Wind Dir Waves Ship Positions

Doris

Last reported at 2017-Apr-04 12:20 UTC. Time now 2017-Apr-27 11:02 UTC.
Position N 30°59' E 122°31'.
Warning: this ship's position is 22 days out of date.

Length 182 m; draft 6 m.

Type: Cargo ship. MMSI: 215080000.

Date/timePositionNaut miles runAvg speedWind from/ knotsBaromVisibWave heightAir tempDewpointWater temp
2017-Apr-04 12:20N 30°59' E 122°31'411.2
2017-Apr-04 11:58N 31°00' E 122°26'612.4
2017-Apr-04 11:28N 31°02' E 122°19'511.8
2017-Apr-04 11:00N 31°03' E 122°13'510.8
2017-Apr-04 10:30N 31°03' E 122°06'612.0
2017-Apr-04 10:00N 31°05' E 121°60'510.5
2017-Apr-04 09:31N 31°08' E 121°55'510.5
2017-Apr-04 09:00N 31°12' E 121°50'510.0
2017-Apr-04 08:30N 31°15' E 121°46'510.0
2017-Apr-04 08:00N 31°19' E 121°42'5 9.4
2017-Apr-04 07:30N 31°22' E 121°38'611.1
2017-Apr-04 07:00N 31°25' E 121°32'4 8.3
2017-Apr-04 06:30N 31°27' E 121°28'510.0
2017-Apr-04 06:00N 31°31' E 121°24'510.7
2017-Apr-04 05:30N 31°34' E 121°19'613.0
2017-Apr-04 05:00N 31°39' E 121°14'612.2
2017-Apr-04 04:30N 31°42' E 121°08'612.3
2017-Apr-04 04:00N 31°46' E 121°02'12 0.4
2017-Apr-02 19:03N 31°55' E 120°54'0 0.0
2017-Apr-02 17:12N 31°55' E 120°54'0 0.0
2017-Apr-02 16:36N 31°55' E 120°54'0 0.0
2017-Apr-02 16:30N 31°55' E 120°54'0 0.0
2017-Apr-02 15:57N 31°55' E 120°54'0 0.0
2017-Apr-02 15:18N 31°55' E 120°54'0 0.0
2017-Apr-02 15:00N 31°55' E 120°54'0 0.0
2017-Apr-02 14:15N 31°55' E 120°54'1 0.1
2017-Apr-01 18:39N 31°54' E 120°53'0 0.0
2017-Apr-01 18:21N 31°54' E 120°53'0 0.0
2017-Apr-01 17:27N 31°54' E 120°53'0 0.0
2017-Apr-01 16:54N 31°54' E 120°53'12 2.4
2017-Apr-01 12:02N 31°46' E 121°03'110.0
2017-Apr-01 11:58N 31°46' E 121°04'510.0
2017-Apr-01 11:29N 31°43' E 121°08'510.3
2017-Apr-01 11:00N 31°40' E 121°13'510.1
2017-Apr-01 10:30N 31°36' E 121°17'510.5
2017-Apr-01 10:00N 31°32' E 121°21'611.6
2017-Apr-01 09:30N 31°29' E 121°27'5 9.7
2017-Apr-01 09:00N 31°25' E 121°31'4 7.8
2017-Apr-01 08:30N 31°23' E 121°35'5 9.1
2017-Apr-01 08:00N 31°21' E 121°39'4 8.9
2017-Apr-01 07:30N 31°19' E 121°44'5 9.0
2017-Apr-01 07:00N 31°17' E 121°49'510.8
2017-Apr-01 06:30N 31°16' E 121°55'510.3
2017-Apr-01 06:00N 31°15' E 122°01'510.4
2017-Apr-01 05:30N 31°13' E 122°07'510.0
2017-Apr-01 05:00N 31°10' E 122°11'510.2
2017-Apr-01 04:30N 31°07' E 122°16'7 9.8
2017-Apr-01 03:48N 31°06' E 122°24'  
2017-Mar-29 01:11N 22°50' E 119°52'1013.5
2017-Mar-29 00:27N 22°40' E 119°51'  
Track history (hours):
 
Tides and Currents Weather Stations Pressure Air Temp Water Temp Dewpoint Dewpoint Depression Visibility Wind Speed Wind Dir Waves Ship Positions

Doris

Last reported at 2017-Apr-04 12:20 UTC. Time now 2017-Apr-27 11:02 UTC.
Position N 30°59' E 122°31'.
Warning: this ship's position is 22 days out of date.

Length 182 m; draft 6 m.

Type: Cargo ship. MMSI: 215080000.

Date/timePositionNaut miles runAvg speedWind from/ knotsBaromVisibWave heightAir tempDewpointWater temp
2017-Apr-04 12:20N 30°59' E 122°31'411.2
2017-Apr-04 11:58N 31°00' E 122°26'612.4
2017-Apr-04 11:28N 31°02' E 122°19'511.8
2017-Apr-04 11:00N 31°03' E 122°13'510.8
2017-Apr-04 10:30N 31°03' E 122°06'612.0
2017-Apr-04 10:00N 31°05' E 121°60'510.5
2017-Apr-04 09:31N 31°08' E 121°55'510.5
2017-Apr-04 09:00N 31°12' E 121°50'510.0
2017-Apr-04 08:30N 31°15' E 121°46'510.0
2017-Apr-04 08:00N 31°19' E 121°42'5 9.4
2017-Apr-04 07:30N 31°22' E 121°38'611.1
2017-Apr-04 07:00N 31°25' E 121°32'4 8.3
2017-Apr-04 06:30N 31°27' E 121°28'510.0
2017-Apr-04 06:00N 31°31' E 121°24'510.7
2017-Apr-04 05:30N 31°34' E 121°19'613.0
2017-Apr-04 05:00N 31°39' E 121°14'612.2
2017-Apr-04 04:30N 31°42' E 121°08'612.3
2017-Apr-04 04:00N 31°46' E 121°02'12 0.4
2017-Apr-02 19:03N 31°55' E 120°54'0 0.0
2017-Apr-02 17:12N 31°55' E 120°54'0 0.0
2017-Apr-02 16:36N 31°55' E 120°54'0 0.0
2017-Apr-02 16:30N 31°55' E 120°54'0 0.0
2017-Apr-02 15:57N 31°55' E 120°54'0 0.0
2017-Apr-02 15:18N 31°55' E 120°54'0 0.0
2017-Apr-02 15:00N 31°55' E 120°54'0 0.0
2017-Apr-02 14:15N 31°55' E 120°54'1 0.1
2017-Apr-01 18:39N 31°54' E 120°53'0 0.0
2017-Apr-01 18:21N 31°54' E 120°53'0 0.0
2017-Apr-01 17:27N 31°54' E 120°53'0 0.0
2017-Apr-01 16:54N 31°54' E 120°53'12 2.4
2017-Apr-01 12:02N 31°46' E 121°03'110.0
2017-Apr-01 11:58N 31°46' E 121°04'510.0
2017-Apr-01 11:29N 31°43' E 121°08'510.3
2017-Apr-01 11:00N 31°40' E 121°13'510.1
2017-Apr-01 10:30N 31°36' E 121°17'510.5
2017-Apr-01 10:00N 31°32' E 121°21'611.6
2017-Apr-01 09:30N 31°29' E 121°27'5 9.7
2017-Apr-01 09:00N 31°25' E 121°31'4 7.8
2017-Apr-01 08:30N 31°23' E 121°35'5 9.1
2017-Apr-01 08:00N 31°21' E 121°39'4 8.9
2017-Apr-01 07:30N 31°19' E 121°44'5 9.0
2017-Apr-01 07:00N 31°17' E 121°49'510.8
2017-Apr-01 06:30N 31°16' E 121°55'510.3
2017-Apr-01 06:00N 31°15' E 122°01'510.4
2017-Apr-01 05:30N 31°13' E 122°07'510.0
2017-Apr-01 05:00N 31°10' E 122°11'510.2
2017-Apr-01 04:30N 31°07' E 122°16'7 9.8
2017-Apr-01 03:48N 31°06' E 122°24'  
2017-Mar-29 01:11N 22°50' E 119°52'1013.5
2017-Mar-29 00:27N 22°40' E 119°51'  

Dump ship's entire track history